Etusivu
METAR-TAF:

METAR-TAF

Lentoasemat :

Düsseldorfin lentoasema

Düsseldorf, Saksa

Leveyspiiri: 51-18N, Pituuspiiri: 006-46E, korkeus merenpinnasta: 45 m

Tämänhetkinen sää

Tämä raportti tehtiin 30 minuuttia sitten, kello 04.20 UTC
Tuuli 6 kn etelästä/kaakosta
Lämpötila 4°C
Kosteus 48%
Ilmanpaine 1037 hPa
Näkyvyys 10 km tai enemmän
ei pilviä alle 1500 m:ssä eikä cumulonimbus-pilviä

METAR: EDDL 240420Z 15006KT CAVOK 04/M06 Q1037 NOSIG

Aika: 05:50 (04:50 UTC)

Sääennuste

Tämä raportti tehtiin 5 tuntia ja 50 minuuttia sitten, kello 23.00 UTC
Ennuste voimassa 24. päivästä klo 00 UTC - 25. päivään klo 06 UTC
Tuuli 8 kn etelästä/kaakosta
Näkyvyys 10 km tai enemmän
ei pilviä alle 1500 m:ssä eikä cumulonimbus-pilviä
Tulossa
24. päivästä klo 15 UTC - 24. päivään klo 18 UTC
Tuuli 3 kn idästä/kaakosta

TAF: EDDL 232300Z 2400/2506 15008KT CAVOK BECMG 2415/2418 12003KT

Säähavainnot ja -ennusteet yli 4000 lentoasemalta (METAR- ja TAF-raportit).

Käytössä olevat sääasemat on merkitty karttaan keltaisilla ja punaisilla pisteillä.

Aseta hiiri pisteen päälle nähdäksesi sääaseman nimen.

Klikkaa sitten nähdäksesi säähavainnot ja -ennusteet.

Kartan vaihtaminen: klikkaa mustalla rastilla varustettuja vihreitä pisteitä, niin voit zoomata sisään; viivalla varustettua vihreää pistettä, niin voit zoomata ulos tai vihreitä nuolia, niin pääset viereisille kartoille.


METAR-TAF: